JST417 YBCG-YSSY
Flight info
| Callsign | JST417 |
|---|---|
| Flight time | 1h 8m |
| Altitude | 36000 |
| Route | GOMOL Q16 APAGI H91 IGDAM/N0443F370 H652 TESAT |
| Aircraft | A320/M-SDE3FGHIRWY/LB1 |
Departure
| Time | 2026-05-06 11:41 |
|---|---|
| Airport | Gold Coast Airport (YBCG) |
Arrival
| Time | 2026-05-06 12:50 |
|---|---|
| Airport | Sydney Kingsford Smith International Airport (YSSY) |
| Time | Latitude | Longitude | Altitude | Speed | Heading |
|---|---|---|---|---|---|
| 2026-05-06 11:08 | -28.16837 | 153.51247 | 27 ft | 0 kts | 60° |
| 2026-05-06 11:30 | -28.16847 | 153.51226 | 28 ft | 4 kts | 64° |
| 2026-05-06 11:31 | -28.16856 | 153.51201 | 27 ft | 2 kts | 75° |
| 2026-05-06 11:31 | -28.16865 | 153.51178 | 27 ft | 4 kts | 25° |
| 2026-05-06 11:31 | -28.16887 | 153.51179 | 29 ft | 4 kts | 334° |
| 2026-05-06 11:31 | -28.16899 | 153.51185 | 29 ft | 0 kts | 330° |
| 2026-05-06 11:34 | -28.16895 | 153.51183 | 28 ft | 2 kts | 330° |
| 2026-05-06 11:34 | -28.16862 | 153.51162 | 28 ft | 9 kts | 330° |
| 2026-05-06 11:34 | -28.16785 | 153.51113 | 28 ft | 16 kts | 330° |
| 2026-05-06 11:34 | -28.16674 | 153.51043 | 31 ft | 20 kts | 330° |
| 2026-05-06 11:35 | -28.16551 | 153.50964 | 28 ft | 16 kts | 331° |
| 2026-05-06 11:35 | -28.16489 | 153.50895 | 26 ft | 13 kts | 268° |
| 2026-05-06 11:35 | -28.16472 | 153.50808 | 30 ft | 13 kts | 328° |
| 2026-05-06 11:35 | -28.16434 | 153.50784 | 26 ft | 0 kts | 331° |
| 2026-05-06 11:37 | -28.16409 | 153.50769 | 26 ft | 8 kts | 331° |
| 2026-05-06 11:37 | -28.16335 | 153.50722 | 29 ft | 16 kts | 331° |
| 2026-05-06 11:37 | -28.16215 | 153.50646 | 27 ft | 24 kts | 330° |
| 2026-05-06 11:38 | -28.16051 | 153.50540 | 29 ft | 30 kts | 331° |
| 2026-05-06 11:38 | -28.15912 | 153.50452 | 28 ft | 21 kts | 330° |
| 2026-05-06 11:38 | -28.15775 | 153.50365 | 29 ft | 24 kts | 330° |
| 2026-05-06 11:38 | -28.15656 | 153.50290 | 28 ft | 10 kts | 330° |
| 2026-05-06 11:39 | -28.15605 | 153.50228 | 31 ft | 12 kts | 287° |
| 2026-05-06 11:39 | -28.15607 | 153.50190 | 26 ft | 0 kts | 253° |
| 2026-05-06 11:39 | -28.15607 | 153.50189 | 30 ft | 1 kts | 253° |
| 2026-05-06 11:40 | -28.15616 | 153.50167 | 27 ft | 6 kts | 244° |
| 2026-05-06 11:40 | -28.15644 | 153.50111 | 30 ft | 10 kts | 237° |
| 2026-05-06 11:40 | -28.15713 | 153.50110 | 26 ft | 16 kts | 150° |
| 2026-05-06 11:40 | -28.15986 | 153.50284 | 29 ft | 82 kts | 150° |
| 2026-05-06 11:41 | -28.16678 | 153.50724 | 30 ft | 142 kts | 150° |
| 2026-05-06 11:41 | -28.17634 | 153.51301 | 449 ft | 158 kts | 154° |
| 2026-05-06 11:41 | -28.18564 | 153.51886 | 1224 ft | 155 kts | 152° |
| 2026-05-06 11:41 | -28.19496 | 153.52486 | 1961 ft | 155 kts | 150° |
| 2026-05-06 11:42 | -28.20524 | 153.53031 | 2347 ft | 175 kts | 158° |
| 2026-05-06 11:42 | -28.21731 | 153.53556 | 2671 ft | 197 kts | 159° |
| 2026-05-06 11:42 | -28.23120 | 153.54136 | 2992 ft | 223 kts | 159° |
| 2026-05-06 11:42 | -28.24662 | 153.54713 | 3448 ft | 248 kts | 169° |
| 2026-05-06 11:43 | -28.26408 | 153.54428 | 4114 ft | 263 kts | 208° |
| 2026-05-06 11:43 | -28.27769 | 153.53045 | 5030 ft | 268 kts | 234° |
| 2026-05-06 11:43 | -28.28762 | 153.51258 | 6039 ft | 269 kts | 242° |
| 2026-05-06 11:44 | -28.30563 | 153.47484 | 7931 ft | 274 kts | 242° |
| 2026-05-06 11:44 | -28.31542 | 153.45601 | 8843 ft | 278 kts | 240° |
| 2026-05-06 11:44 | -28.32575 | 153.43756 | 9725 ft | 282 kts | 238° |
| 2026-05-06 11:44 | -28.33682 | 153.41880 | 10406 ft | 294 kts | 238° |
| 2026-05-06 11:45 | -28.34892 | 153.39883 | 10676 ft | 318 kts | 237° |
| 2026-05-06 11:45 | -28.36199 | 153.37763 | 11068 ft | 334 kts | 237° |
| 2026-05-06 11:45 | -28.37560 | 153.35577 | 11749 ft | 340 kts | 237° |
| 2026-05-06 11:45 | -28.38940 | 153.33369 | 12499 ft | 344 kts | 237° |
| 2026-05-06 11:46 | -28.40336 | 153.31133 | 13259 ft | 348 kts | 238° |
| 2026-05-06 11:46 | -28.41722 | 153.28906 | 13947 ft | 351 kts | 238° |
| 2026-05-06 11:46 | -28.43144 | 153.26614 | 14589 ft | 355 kts | 238° |
| 2026-05-06 11:46 | -28.44087 | 153.25088 | 15034 ft | 356 kts | 238° |
| 2026-05-06 11:47 | -28.45520 | 153.22766 | 15695 ft | 360 kts | 238° |
| 2026-05-06 11:47 | -28.46963 | 153.20426 | 16331 ft | 363 kts | 238° |
| 2026-05-06 11:47 | -28.48420 | 153.18059 | 16967 ft | 366 kts | 238° |
| 2026-05-06 11:47 | -28.49884 | 153.15680 | 17606 ft | 368 kts | 238° |
| 2026-05-06 11:48 | -28.51361 | 153.13280 | 18228 ft | 371 kts | 238° |
| 2026-05-06 11:48 | -28.52830 | 153.10898 | 18821 ft | 374 kts | 238° |
| 2026-05-06 11:48 | -28.54328 | 153.08470 | 19431 ft | 376 kts | 239° |
| 2026-05-06 11:48 | -28.55834 | 153.06027 | 20041 ft | 378 kts | 239° |
| 2026-05-06 11:49 | -28.57351 | 153.03563 | 20641 ft | 380 kts | 239° |
| 2026-05-06 11:49 | -28.58872 | 153.01090 | 21223 ft | 382 kts | 239° |
| 2026-05-06 11:49 | -28.60403 | 152.98601 | 21796 ft | 384 kts | 239° |
| 2026-05-06 11:49 | -28.61941 | 152.96098 | 22348 ft | 386 kts | 240° |
| 2026-05-06 11:50 | -28.63478 | 152.93592 | 22874 ft | 388 kts | 240° |
| 2026-05-06 11:50 | -28.65033 | 152.91054 | 23414 ft | 391 kts | 240° |
| 2026-05-06 11:50 | -28.66594 | 152.88503 | 23878 ft | 394 kts | 240° |
| 2026-05-06 11:50 | -28.68146 | 152.85967 | 24301 ft | 396 kts | 240° |
| 2026-05-06 11:51 | -28.69728 | 152.83381 | 24747 ft | 398 kts | 240° |
| 2026-05-06 11:51 | -28.71317 | 152.80784 | 25206 ft | 399 kts | 240° |
| 2026-05-06 11:51 | -28.72913 | 152.78175 | 25623 ft | 401 kts | 240° |
| 2026-05-06 11:51 | -28.74513 | 152.75560 | 26064 ft | 402 kts | 241° |
| 2026-05-06 11:52 | -28.76118 | 152.72936 | 26493 ft | 404 kts | 241° |
| 2026-05-06 11:52 | -28.77726 | 152.70304 | 26930 ft | 406 kts | 241° |
| 2026-05-06 11:52 | -28.79321 | 152.67689 | 27355 ft | 407 kts | 241° |
| 2026-05-06 11:52 | -28.80947 | 152.65018 | 27789 ft | 409 kts | 241° |
| 2026-05-06 11:53 | -28.82580 | 152.62337 | 28235 ft | 411 kts | 241° |
| 2026-05-06 11:53 | -28.84404 | 152.59777 | 28671 ft | 421 kts | 232° |
| 2026-05-06 11:53 | -28.86640 | 152.57627 | 29049 ft | 433 kts | 221° |
| 2026-05-06 11:53 | -28.89311 | 152.55897 | 29438 ft | 443 kts | 215° |
| 2026-05-06 11:54 | -28.92063 | 152.54281 | 29827 ft | 445 kts | 215° |
| 2026-05-06 11:54 | -28.94826 | 152.52645 | 30214 ft | 447 kts | 215° |
| 2026-05-06 11:54 | -28.97595 | 152.50995 | 30552 ft | 449 kts | 216° |
| 2026-05-06 11:54 | -29.00369 | 152.49341 | 30922 ft | 450 kts | 216° |
| 2026-05-06 11:55 | -29.03145 | 152.47686 | 31455 ft | 447 kts | 217° |
| 2026-05-06 11:55 | -29.05859 | 152.46069 | 32001 ft | 443 kts | 217° |
| 2026-05-06 11:55 | -29.08593 | 152.44440 | 32586 ft | 440 kts | 217° |
| 2026-05-06 11:55 | -29.11311 | 152.42820 | 33123 ft | 437 kts | 218° |
| 2026-05-06 11:56 | -29.13971 | 152.41234 | 33674 ft | 434 kts | 218° |
| 2026-05-06 11:56 | -29.16647 | 152.39638 | 34226 ft | 431 kts | 219° |
| 2026-05-06 11:56 | -29.19305 | 152.38047 | 34701 ft | 429 kts | 219° |
| 2026-05-06 11:56 | -29.21943 | 152.36463 | 35158 ft | 427 kts | 220° |
| 2026-05-06 11:57 | -29.24568 | 152.34889 | 35583 ft | 425 kts | 220° |
| 2026-05-06 11:57 | -29.27189 | 152.33322 | 35991 ft | 424 kts | 220° |
| 2026-05-06 11:57 | -29.29810 | 152.31757 | 36158 ft | 424 kts | 220° |
| 2026-05-06 11:57 | -29.32429 | 152.30192 | 36156 ft | 424 kts | 220° |
| 2026-05-06 11:58 | -29.37630 | 152.27060 | 36159 ft | 423 kts | 221° |
| 2026-05-06 11:58 | -29.42860 | 152.23908 | 36154 ft | 424 kts | 220° |
| 2026-05-06 11:59 | -29.48049 | 152.20796 | 36154 ft | 422 kts | 220° |
| 2026-05-06 11:59 | -29.53266 | 152.17655 | 36181 ft | 423 kts | 220° |
| 2026-05-06 12:00 | -29.58466 | 152.14508 | 36168 ft | 424 kts | 220° |
| 2026-05-06 12:00 | -29.63705 | 152.11343 | 36162 ft | 425 kts | 220° |
| 2026-05-06 12:01 | -29.68949 | 152.08200 | 36164 ft | 430 kts | 217° |
| 2026-05-06 12:01 | -29.71826 | 152.07020 | 36162 ft | 449 kts | 206° |
| 2026-05-06 12:01 | -29.74891 | 152.06217 | 36201 ft | 452 kts | 205° |
| 2026-05-06 12:02 | -29.81044 | 152.04633 | 36188 ft | 452 kts | 205° |
| 2026-05-06 12:02 | -29.87176 | 152.03037 | 36181 ft | 452 kts | 205° |
| 2026-05-06 12:03 | -29.93324 | 152.01422 | 36173 ft | 452 kts | 205° |
| 2026-05-06 12:03 | -29.99466 | 151.99810 | 36193 ft | 452 kts | 204° |
| 2026-05-06 12:04 | -30.05592 | 151.98206 | 36187 ft | 452 kts | 204° |
| 2026-05-06 12:04 | -30.11750 | 151.96588 | 36184 ft | 453 kts | 204° |
| 2026-05-06 12:05 | -30.17870 | 151.94980 | 36164 ft | 452 kts | 204° |
| 2026-05-06 12:05 | -30.23998 | 151.93367 | 36175 ft | 452 kts | 204° |
| 2026-05-06 12:06 | -30.30163 | 151.91740 | 36171 ft | 453 kts | 204° |
| 2026-05-06 12:06 | -30.33183 | 151.90765 | 36168 ft | 441 kts | 212° |
| 2026-05-06 12:06 | -30.35999 | 151.89480 | 36170 ft | 438 kts | 213° |
| 2026-05-06 12:07 | -30.41652 | 151.86847 | 36166 ft | 436 kts | 213° |
| 2026-05-06 12:07 | -30.44434 | 151.85559 | 36173 ft | 424 kts | 213° |
| 2026-05-06 12:07 | -30.47126 | 151.84319 | 36154 ft | 413 kts | 213° |
| 2026-05-06 12:08 | -30.52486 | 151.81807 | 36151 ft | 420 kts | 214° |
| 2026-05-06 12:08 | -30.58009 | 151.79184 | 36152 ft | 436 kts | 213° |
| 2026-05-06 12:09 | -30.63674 | 151.76539 | 36148 ft | 440 kts | 213° |
| 2026-05-06 12:09 | -30.69341 | 151.73923 | 36155 ft | 441 kts | 212° |
| 2026-05-06 12:10 | -30.75057 | 151.71259 | 36153 ft | 441 kts | 212° |
| 2026-05-06 12:10 | -30.80724 | 151.68597 | 36151 ft | 441 kts | 212° |
| 2026-05-06 12:11 | -30.86433 | 151.65912 | 36149 ft | 442 kts | 212° |
| 2026-05-06 12:11 | -30.92139 | 151.63229 | 36185 ft | 442 kts | 212° |
| 2026-05-06 12:12 | -30.97843 | 151.60541 | 36172 ft | 442 kts | 212° |
| 2026-05-06 12:12 | -31.03717 | 151.58270 | 36157 ft | 449 kts | 207° |
| 2026-05-06 12:13 | -31.09769 | 151.56202 | 36152 ft | 451 kts | 206° |
| 2026-05-06 12:13 | -31.15788 | 151.54165 | 36178 ft | 451 kts | 206° |
| 2026-05-06 12:14 | -31.21799 | 151.52084 | 36166 ft | 450 kts | 206° |
| 2026-05-06 12:14 | -31.27811 | 151.49983 | 36155 ft | 451 kts | 206° |
| 2026-05-06 12:15 | -31.33800 | 151.47891 | 36155 ft | 451 kts | 206° |
| 2026-05-06 12:15 | -31.39805 | 151.45788 | 36170 ft | 451 kts | 206° |
| 2026-05-06 12:16 | -31.45828 | 151.43676 | 36162 ft | 451 kts | 206° |
| 2026-05-06 12:16 | -31.51822 | 151.41572 | 36156 ft | 451 kts | 206° |
| 2026-05-06 12:17 | -31.57862 | 151.39456 | 36186 ft | 451 kts | 206° |
| 2026-05-06 12:17 | -31.63876 | 151.37350 | 36157 ft | 451 kts | 206° |
| 2026-05-06 12:18 | -31.69851 | 151.35245 | 36149 ft | 451 kts | 206° |
| 2026-05-06 12:18 | -31.75879 | 151.33115 | 36140 ft | 451 kts | 206° |
| 2026-05-06 12:19 | -31.81903 | 151.30990 | 36165 ft | 451 kts | 206° |
| 2026-05-06 12:19 | -31.87931 | 151.28862 | 36152 ft | 452 kts | 206° |
| 2026-05-06 12:20 | -31.93914 | 151.26742 | 36138 ft | 452 kts | 206° |
| 2026-05-06 12:20 | -31.99952 | 151.24600 | 36129 ft | 451 kts | 206° |
| 2026-05-06 12:21 | -32.05962 | 151.22467 | 36165 ft | 452 kts | 206° |
| 2026-05-06 12:21 | -32.11998 | 151.20322 | 36144 ft | 452 kts | 206° |
| 2026-05-06 12:22 | -32.17985 | 151.18190 | 36132 ft | 452 kts | 206° |
| 2026-05-06 12:22 | -32.23986 | 151.16050 | 36149 ft | 452 kts | 206° |
| 2026-05-06 12:23 | -32.29997 | 151.13902 | 36131 ft | 452 kts | 206° |
| 2026-05-06 12:23 | -32.36008 | 151.11756 | 36121 ft | 452 kts | 206° |
| 2026-05-06 12:24 | -32.41013 | 151.09971 | 36119 ft | 452 kts | 206° |
| 2026-05-06 12:24 | -32.48046 | 151.07449 | 36116 ft | 452 kts | 206° |
| 2026-05-06 12:25 | -32.53073 | 151.05642 | 36105 ft | 452 kts | 206° |
| 2026-05-06 12:25 | -32.56050 | 151.04574 | 35690 ft | 449 kts | 206° |
| 2026-05-06 12:25 | -32.59070 | 151.03491 | 34177 ft | 457 kts | 205° |
| 2026-05-06 12:26 | -32.62140 | 151.02382 | 32450 ft | 466 kts | 205° |
| 2026-05-06 12:26 | -32.65248 | 151.01260 | 30832 ft | 472 kts | 204° |
| 2026-05-06 12:26 | -32.68397 | 151.00127 | 29489 ft | 468 kts | 204° |
| 2026-05-06 12:26 | -32.71480 | 150.99018 | 28171 ft | 462 kts | 204° |
| 2026-05-06 12:27 | -32.74565 | 150.97913 | 26928 ft | 454 kts | 203° |
| 2026-05-06 12:27 | -32.77592 | 150.97056 | 25782 ft | 452 kts | 194° |
| 2026-05-06 12:27 | -32.80749 | 150.96841 | 24679 ft | 452 kts | 183° |
| 2026-05-06 12:27 | -32.83864 | 150.97262 | 23595 ft | 449 kts | 176° |
| 2026-05-06 12:28 | -32.86914 | 150.97812 | 22764 ft | 434 kts | 176° |
| 2026-05-06 12:28 | -32.89824 | 150.98346 | 22331 ft | 411 kts | 176° |
| 2026-05-06 12:28 | -32.92587 | 150.98854 | 21837 ft | 395 kts | 175° |
| 2026-05-06 12:28 | -32.95262 | 150.99339 | 21347 ft | 381 kts | 176° |
| 2026-05-06 12:29 | -32.97866 | 150.99801 | 20875 ft | 380 kts | 176° |
| 2026-05-06 12:29 | -33.00487 | 151.00259 | 20388 ft | 379 kts | 175° |
| 2026-05-06 12:29 | -33.03087 | 151.00713 | 19895 ft | 377 kts | 175° |
| 2026-05-06 12:29 | -33.05686 | 151.01171 | 19390 ft | 376 kts | 175° |
| 2026-05-06 12:30 | -33.08264 | 151.01627 | 18881 ft | 376 kts | 175° |
| 2026-05-06 12:30 | -33.10845 | 151.02086 | 18356 ft | 375 kts | 174° |
| 2026-05-06 12:30 | -33.13432 | 151.02549 | 17777 ft | 375 kts | 174° |
| 2026-05-06 12:30 | -33.16018 | 151.03018 | 17241 ft | 372 kts | 174° |
| 2026-05-06 12:31 | -33.18583 | 151.03482 | 16685 ft | 371 kts | 174° |
| 2026-05-06 12:31 | -33.21123 | 151.03940 | 16143 ft | 370 kts | 174° |
| 2026-05-06 12:31 | -33.23638 | 151.04391 | 15609 ft | 368 kts | 174° |
| 2026-05-06 12:31 | -33.26170 | 151.04853 | 15076 ft | 366 kts | 174° |
| 2026-05-06 12:32 | -33.28690 | 151.05330 | 14542 ft | 365 kts | 174° |
| 2026-05-06 12:32 | -33.31197 | 151.05813 | 14011 ft | 364 kts | 173° |
| 2026-05-06 12:32 | -33.33692 | 151.06297 | 13437 ft | 362 kts | 173° |
| 2026-05-06 12:32 | -33.36171 | 151.06780 | 12901 ft | 359 kts | 173° |
| 2026-05-06 12:33 | -33.38635 | 151.07257 | 12369 ft | 357 kts | 173° |
| 2026-05-06 12:33 | -33.41051 | 151.07724 | 11829 ft | 356 kts | 173° |
| 2026-05-06 12:33 | -33.43517 | 151.08198 | 11273 ft | 355 kts | 173° |
| 2026-05-06 12:33 | -33.45934 | 151.08661 | 10744 ft | 353 kts | 173° |
| 2026-05-06 12:34 | -33.48338 | 151.09126 | 10453 ft | 345 kts | 173° |
| 2026-05-06 12:34 | -33.50666 | 151.09582 | 10317 ft | 331 kts | 173° |
| 2026-05-06 12:34 | -33.52906 | 151.10020 | 10204 ft | 320 kts | 174° |
| 2026-05-06 12:34 | -33.55069 | 151.10438 | 10074 ft | 310 kts | 174° |
| 2026-05-06 12:35 | -33.57186 | 151.10845 | 9815 ft | 305 kts | 174° |
| 2026-05-06 12:35 | -33.59256 | 151.11240 | 9439 ft | 305 kts | 174° |
| 2026-05-06 12:35 | -33.61339 | 151.11638 | 9091 ft | 303 kts | 174° |
| 2026-05-06 12:35 | -33.63437 | 151.12044 | 8769 ft | 300 kts | 174° |
| 2026-05-06 12:36 | -33.65479 | 151.12441 | 8618 ft | 294 kts | 173° |
| 2026-05-06 12:36 | -33.67507 | 151.12837 | 8476 ft | 294 kts | 173° |
| 2026-05-06 12:36 | -33.69525 | 151.13235 | 8300 ft | 293 kts | 173° |
| 2026-05-06 12:36 | -33.71523 | 151.13627 | 8130 ft | 292 kts | 174° |
| 2026-05-06 12:37 | -33.73527 | 151.14017 | 7961 ft | 291 kts | 173° |
| 2026-05-06 12:37 | -33.75521 | 151.14407 | 7769 ft | 290 kts | 173° |
| 2026-05-06 12:37 | -33.77531 | 151.14798 | 7607 ft | 290 kts | 174° |
| 2026-05-06 12:37 | -33.79508 | 151.15177 | 7438 ft | 289 kts | 174° |
| 2026-05-06 12:38 | -33.81494 | 151.15275 | 7270 ft | 284 kts | 188° |
| 2026-05-06 12:38 | -33.83433 | 151.14832 | 7099 ft | 280 kts | 197° |
| 2026-05-06 12:38 | -33.85307 | 151.14287 | 6935 ft | 280 kts | 197° |
| 2026-05-06 12:38 | -33.87211 | 151.13736 | 6766 ft | 279 kts | 197° |
| 2026-05-06 12:39 | -33.89072 | 151.13196 | 6606 ft | 279 kts | 197° |
| 2026-05-06 12:39 | -33.90995 | 151.12640 | 6434 ft | 279 kts | 197° |
| 2026-05-06 12:39 | -33.92869 | 151.12098 | 6266 ft | 278 kts | 197° |
| 2026-05-06 12:39 | -33.94751 | 151.11557 | 6106 ft | 278 kts | 197° |
| 2026-05-06 12:40 | -33.96627 | 151.11020 | 5983 ft | 277 kts | 197° |
| 2026-05-06 12:40 | -33.98504 | 151.10481 | 5825 ft | 277 kts | 197° |
| 2026-05-06 12:40 | -34.00372 | 151.09943 | 5621 ft | 275 kts | 197° |
| 2026-05-06 12:40 | -34.01616 | 151.09587 | 5486 ft | 275 kts | 197° |
| 2026-05-06 12:41 | -34.02625 | 151.09297 | 5376 ft | 275 kts | 197° |
| 2026-05-06 12:41 | -34.04481 | 151.08763 | 5175 ft | 274 kts | 197° |
| 2026-05-06 12:41 | -34.06339 | 151.08222 | 4975 ft | 273 kts | 196° |
| 2026-05-06 12:41 | -34.08229 | 151.07949 | 4784 ft | 276 kts | 181° |
| 2026-05-06 12:42 | -34.10130 | 151.08268 | 4585 ft | 279 kts | 170° |
| 2026-05-06 12:42 | -34.12035 | 151.08766 | 4367 ft | 279 kts | 169° |
| 2026-05-06 12:42 | -34.13924 | 151.09256 | 4197 ft | 279 kts | 169° |
| 2026-05-06 12:42 | -34.15832 | 151.09751 | 4059 ft | 279 kts | 169° |
| 2026-05-06 12:43 | -34.17716 | 151.10293 | 3903 ft | 279 kts | 161° |
| 2026-05-06 12:43 | -34.19323 | 151.11544 | 3754 ft | 272 kts | 132° |
| 2026-05-06 12:43 | -34.20223 | 151.13499 | 3591 ft | 262 kts | 102° |
| 2026-05-06 12:43 | -34.20341 | 151.15637 | 3454 ft | 251 kts | 85° |
| 2026-05-06 12:44 | -34.20250 | 151.17718 | 3304 ft | 244 kts | 83° |
| 2026-05-06 12:44 | -34.20128 | 151.19746 | 3153 ft | 241 kts | 77° |
| 2026-05-06 12:44 | -34.19490 | 151.21532 | 3046 ft | 230 kts | 44° |
| 2026-05-06 12:44 | -34.18244 | 151.22680 | 3003 ft | 223 kts | 21° |
| 2026-05-06 12:45 | -34.16771 | 151.23160 | 3006 ft | 218 kts | 0° |
| 2026-05-06 12:45 | -34.15282 | 151.22976 | 3005 ft | 212 kts | 345° |
| 2026-05-06 12:45 | -34.12597 | 151.22274 | 2998 ft | 184 kts | 345° |
| 2026-05-06 12:46 | -34.11375 | 151.21955 | 2949 ft | 178 kts | 345° |
| 2026-05-06 12:46 | -34.10161 | 151.21638 | 2753 ft | 175 kts | 345° |
| 2026-05-06 12:46 | -34.08974 | 151.21329 | 2524 ft | 174 kts | 344° |
| 2026-05-06 12:46 | -34.07807 | 151.21025 | 2307 ft | 172 kts | 345° |
| 2026-05-06 12:47 | -34.06643 | 151.20721 | 2081 ft | 170 kts | 346° |
| 2026-05-06 12:47 | -34.05484 | 151.20420 | 1856 ft | 168 kts | 346° |
| 2026-05-06 12:47 | -34.04364 | 151.20129 | 1633 ft | 161 kts | 346° |
| 2026-05-06 12:47 | -34.03309 | 151.19855 | 1428 ft | 152 kts | 345° |
| 2026-05-06 12:48 | -34.02318 | 151.19598 | 1228 ft | 138 kts | 345° |
| 2026-05-06 12:48 | -34.01401 | 151.19359 | 1053 ft | 130 kts | 346° |
| 2026-05-06 12:48 | -34.00522 | 151.19131 | 877 ft | 129 kts | 347° |
| 2026-05-06 12:48 | -33.99661 | 151.18906 | 702 ft | 128 kts | 346° |
| 2026-05-06 12:49 | -33.98778 | 151.18677 | 537 ft | 130 kts | 346° |
| 2026-05-06 12:49 | -33.97899 | 151.18448 | 371 ft | 129 kts | 345° |
| 2026-05-06 12:49 | -33.97036 | 151.18229 | 214 ft | 127 kts | 345° |
| 2026-05-06 12:49 | -33.96165 | 151.17999 | 44 ft | 127 kts | 344° |
| 2026-05-06 12:50 | -33.95428 | 151.17805 | 29 ft | 86 kts | 348° |
| 2026-05-06 12:50 | -33.94997 | 151.17693 | 28 ft | 48 kts | 347° |
| 2026-05-06 12:50 | -33.94742 | 151.17645 | 29 ft | 27 kts | 358° |
| 2026-05-06 12:50 | -33.94585 | 151.17664 | 29 ft | 23 kts | 9° |
| 2026-05-06 12:51 | -33.94482 | 151.17697 | 30 ft | 11 kts | 18° |
| 2026-05-06 12:51 | -33.94401 | 151.17730 | 30 ft | 14 kts | 18° |
| 2026-05-06 12:51 | -33.94327 | 151.17734 | 30 ft | 11 kts | 346° |
| 2026-05-06 12:51 | -33.94258 | 151.17712 | 30 ft | 1 kts | 346° |
| 2026-05-06 12:52 | -33.94238 | 151.17706 | 29 ft | 5 kts | 346° |
| 2026-05-06 12:52 | -33.94193 | 151.17692 | 29 ft | 9 kts | 346° |
| 2026-05-06 12:52 | -33.94121 | 151.17670 | 29 ft | 13 kts | 345° |
| 2026-05-06 12:52 | -33.94019 | 151.17640 | 28 ft | 17 kts | 347° |
| 2026-05-06 12:53 | -33.93914 | 151.17614 | 29 ft | 12 kts | 349° |
| 2026-05-06 12:53 | -33.93862 | 151.17681 | 29 ft | 13 kts | 73° |
| 2026-05-06 12:53 | -33.93834 | 151.17799 | 30 ft | 16 kts | 74° |
| 2026-05-06 12:53 | -33.93801 | 151.17939 | 30 ft | 19 kts | 74° |
| 2026-05-06 12:54 | -33.93772 | 151.18053 | 30 ft | 11 kts | 57° |
| 2026-05-06 12:54 | -33.93697 | 151.18055 | 30 ft | 9 kts | 348° |
| 2026-05-06 12:54 | -33.93622 | 151.18052 | 30 ft | 13 kts | 3° |
| 2026-05-06 12:54 | -33.93570 | 151.18056 | 30 ft | 5 kts | 343° |
| 2026-05-06 12:55 | -33.93558 | 151.18009 | 30 ft | 7 kts | 279° |
| 2026-05-06 12:55 | -33.93556 | 151.17990 | 30 ft | 1 kts | 279° |
| 2026-05-06 12:55 | -33.93555 | 151.17988 | 30 ft | 0 kts | 280° |